sensor_id;sensor_type;location;lat;lon;timestamp;temperature;humidity
6930;DHT22;3504;52.616;13.238;2022-10-04T00:04:09;13.21;86.41
6930;DHT22;3504;52.616;13.238;2022-10-04T00:09:16;13.24;86.02
6930;DHT22;3504;52.616;13.238;2022-10-04T00:14:27;13.22;85.86
6930;DHT22;3504;52.616;13.238;2022-10-04T00:19:50;13.21;85.85
6930;DHT22;3504;52.616;13.238;2022-10-04T00:30:22;13.22;85.46
6930;DHT22;3504;52.616;13.238;2022-10-04T00:40:31;13.24;85.21
6930;DHT22;3504;52.616;13.238;2022-10-04T00:50:43;13.18;84.97
6930;DHT22;3504;52.616;13.238;2022-10-04T00:55:55;13.18;84.93
6930;DHT22;3504;52.616;13.238;2022-10-04T01:00:58;13.18;84.96
6930;DHT22;3504;52.616;13.238;2022-10-04T01:06:03;13.14;84.88
6930;DHT22;3504;52.616;13.238;2022-10-04T01:11:22;13.10;84.80
6930;DHT22;3504;52.616;13.238;2022-10-04T01:16:26;13.06;84.66
6930;DHT22;3504;52.616;13.238;2022-10-04T01:21:30;13.03;84.60
6930;DHT22;3504;52.616;13.238;2022-10-04T01:26:38;13.01;84.55
6930;DHT22;3504;52.616;13.238;2022-10-04T01:31:45;13.04;84.59
6930;DHT22;3504;52.616;13.238;2022-10-04T01:36:47;13.04;84.54
6930;DHT22;3504;52.616;13.238;2022-10-04T01:42:09;13.01;84.53
6930;DHT22;3504;52.616;13.238;2022-10-04T01:47:20;13.01;84.59
6930;DHT22;3504;52.616;13.238;2022-10-04T01:52:29;13.01;84.48
6930;DHT22;3504;52.616;13.238;2022-10-04T01:57:49;12.97;84.42
6930;DHT22;3504;52.616;13.238;2022-10-04T02:03:04;12.96;84.33
6930;DHT22;3504;52.616;13.238;2022-10-04T02:08:11;12.93;84.28
6930;DHT22;3504;52.616;13.238;2022-10-04T02:13:14;12.91;84.00
6930;DHT22;3504;52.616;13.238;2022-10-04T02:18:20;12.90;83.81
6930;DHT22;3504;52.616;13.238;2022-10-04T02:23:22;12.79;83.06
6930;DHT22;3504;52.616;13.238;2022-10-04T02:28:22;12.71;83.19
6930;DHT22;3504;52.616;13.238;2022-10-04T02:33:23;12.59;82.86
6930;DHT22;3504;52.616;13.238;2022-10-04T02:38:33;12.52;83.13
6930;DHT22;3504;52.616;13.238;2022-10-04T02:43:44;12.45;83.49
6930;DHT22;3504;52.616;13.238;2022-10-04T02:48:58;12.32;84.00
6930;DHT22;3504;52.616;13.238;2022-10-04T02:54:36;12.26;84.66
6930;DHT22;3504;52.616;13.238;2022-10-04T02:59:38;12.22;84.91
6930;DHT22;3504;52.616;13.238;2022-10-04T03:04:39;12.17;84.77
6930;DHT22;3504;52.616;13.238;2022-10-04T03:09:40;12.08;85.39
6930;DHT22;3504;52.616;13.238;2022-10-04T03:14:41;11.98;85.54
6930;DHT22;3504;52.616;13.238;2022-10-04T03:19:42;11.91;85.88
6930;DHT22;3504;52.616;13.238;2022-10-04T03:24:46;11.85;85.88
6930;DHT22;3504;52.616;13.238;2022-10-04T03:29:48;11.78;85.76
6930;DHT22;3504;52.616;13.238;2022-10-04T03:35:04;11.67;86.41
6930;DHT22;3504;52.616;13.238;2022-10-04T03:40:08;11.61;86.53
6930;DHT22;3504;52.616;13.238;2022-10-04T03:45:16;11.60;87.08
6930;DHT22;3504;52.616;13.238;2022-10-04T03:50:25;11.60;87.03
6930;DHT22;3504;52.616;13.238;2022-10-04T03:55:36;11.67;87.12
6930;DHT22;3504;52.616;13.238;2022-10-04T04:00:43;11.61;87.00
6930;DHT22;3504;52.616;13.238;2022-10-04T04:05:50;11.53;87.04
6930;DHT22;3504;52.616;13.238;2022-10-04T04:10:55;11.51;86.91
6930;DHT22;3504;52.616;13.238;2022-10-04T04:15:59;11.44;87.11
6930;DHT22;3504;52.616;13.238;2022-10-04T04:21:02;11.43;86.80
6930;DHT22;3504;52.616;13.238;2022-10-04T04:26:27;11.37;86.69
6930;DHT22;3504;52.616;13.238;2022-10-04T04:31:50;11.33;87.01
6930;DHT22;3504;52.616;13.238;2022-10-04T04:37:00;11.29;87.33
6930;DHT22;3504;52.616;13.238;2022-10-04T04:42:26;11.30;87.47
6930;DHT22;3504;52.616;13.238;2022-10-04T04:47:43;11.30;88.15
6930;DHT22;3504;52.616;13.238;2022-10-04T04:52:47;11.27;88.17
6930;DHT22;3504;52.616;13.238;2022-10-04T04:57:53;11.31;88.76
6930;DHT22;3504;52.616;13.238;2022-10-04T05:02:58;11.35;88.88
6930;DHT22;3504;52.616;13.238;2022-10-04T05:08:23;11.42;88.82
6930;DHT22;3504;52.616;13.238;2022-10-04T05:18:40;11.56;88.77
6930;DHT22;3504;52.616;13.238;2022-10-04T05:23:41;11.61;88.78
6930;DHT22;3504;52.616;13.238;2022-10-04T05:28:41;11.68;88.63
6930;DHT22;3504;52.616;13.238;2022-10-04T05:33:56;11.78;88.40
6930;DHT22;3504;52.616;13.238;2022-10-04T05:39:06;11.85;88.07
6930;DHT22;3504;52.616;13.238;2022-10-04T05:44:27;11.94;87.87
6930;DHT22;3504;52.616;13.238;2022-10-04T05:49:33;12.02;87.83
6930;DHT22;3504;52.616;13.238;2022-10-04T05:54:35;12.08;87.67
6930;DHT22;3504;52.616;13.238;2022-10-04T06:00:10;12.18;87.63
6930;DHT22;3504;52.616;13.238;2022-10-04T06:22:21;12.59;86.55
6930;DHT22;3504;52.616;13.238;2022-10-04T06:33:21;12.63;85.78
6930;DHT22;3504;52.616;13.238;2022-10-04T06:38:56;12.70;85.60
6930;DHT22;3504;52.616;13.238;2022-10-04T06:44:30;12.77;84.82
6930;DHT22;3504;52.616;13.238;2022-10-04T06:49:44;12.77;84.94
6930;DHT22;3504;52.616;13.238;2022-10-04T07:00:15;12.87;85.11
6930;DHT22;3504;52.616;13.238;2022-10-04T07:10:52;13.07;84.75
6930;DHT22;3504;52.616;13.238;2022-10-04T07:16:16;13.14;84.20
6930;DHT22;3504;52.616;13.238;2022-10-04T07:21:24;13.25;84.69
6930;DHT22;3504;52.616;13.238;2022-10-04T07:26:48;13.25;84.24
6930;DHT22;3504;52.616;13.238;2022-10-04T07:37:10;13.32;84.16
6930;DHT22;3504;52.616;13.238;2022-10-04T07:42:43;13.31;84.43
6930;DHT22;3504;52.616;13.238;2022-10-04T07:47:47;13.39;84.34
6930;DHT22;3504;52.616;13.238;2022-10-04T07:53:26;13.44;83.10
6930;DHT22;3504;52.616;13.238;2022-10-04T07:59:12;13.49;83.59
6930;DHT22;3504;52.616;13.238;2022-10-04T08:04:30;13.61;82.82
6930;DHT22;3504;52.616;13.238;2022-10-04T08:10:10;13.92;82.74
6930;DHT22;3504;52.616;13.238;2022-10-04T08:20:57;14.27;80.27
6930;DHT22;3504;52.616;13.238;2022-10-04T08:32:04;14.47;80.01
6930;DHT22;3504;52.616;13.238;2022-10-04T08:49:03;14.96;78.54
6930;DHT22;3504;52.616;13.238;2022-10-04T08:55:04;15.10;78.37
6930;DHT22;3504;52.616;13.238;2022-10-04T09:00:15;15.36;77.30
6930;DHT22;3504;52.616;13.238;2022-10-04T09:05:36;15.47;75.92
6930;DHT22;3504;52.616;13.238;2022-10-04T09:16:23;15.47;76.59
6930;DHT22;3504;52.616;13.238;2022-10-04T09:21:57;15.40;75.08
6930;DHT22;3504;52.616;13.238;2022-10-04T09:27:14;15.39;76.82
6930;DHT22;3504;52.616;13.238;2022-10-04T09:43:48;16.12;74.36
6930;DHT22;3504;52.616;13.238;2022-10-04T10:00:30;16.48;74.31
6930;DHT22;3504;52.616;13.238;2022-10-04T10:05:53;16.73;71.69
6930;DHT22;3504;52.616;13.238;2022-10-04T10:17:23;16.92;71.36
6930;DHT22;3504;52.616;13.238;2022-10-04T10:28:42;17.21;70.46
6930;DHT22;3504;52.616;13.238;2022-10-04T10:34:17;17.25;70.40
6930;DHT22;3504;52.616;13.238;2022-10-04T10:56:00;17.00;72.20
6930;DHT22;3504;52.616;13.238;2022-10-04T11:01:44;16.90;70.77
6930;DHT22;3504;52.616;13.238;2022-10-04T11:12:27;16.90;72.55
6930;DHT22;3504;52.616;13.238;2022-10-04T11:18:01;17.07;72.41
6930;DHT22;3504;52.616;13.238;2022-10-04T11:23:51;17.49;72.04
6930;DHT22;3504;52.616;13.238;2022-10-04T11:40:45;17.41;69.09
6930;DHT22;3504;52.616;13.238;2022-10-04T12:03:36;17.41;70.16
6930;DHT22;3504;52.616;13.238;2022-10-04T12:14:51;17.61;68.55
6930;DHT22;3504;52.616;13.238;2022-10-04T12:31:44;18.13;67.12
6930;DHT22;3504;52.616;13.238;2022-10-04T12:37:28;18.18;66.15
6930;DHT22;3504;52.616;13.238;2022-10-04T12:42:58;18.26;65.33
6930;DHT22;3504;52.616;13.238;2022-10-04T12:48:26;18.10;66.16
6930;DHT22;3504;52.616;13.238;2022-10-04T13:10:03;18.05;65.74
6930;DHT22;3504;52.616;13.238;2022-10-04T13:15:21;18.02;65.67
6930;DHT22;3504;52.616;13.238;2022-10-04T13:20:52;18.02;66.75
6930;DHT22;3504;52.616;13.238;2022-10-04T13:42:32;18.09;65.40
6930;DHT22;3504;52.616;13.238;2022-10-04T13:53:16;18.09;64.21
6930;DHT22;3504;52.616;13.238;2022-10-04T14:15:48;18.06;63.69
6930;DHT22;3504;52.616;13.238;2022-10-04T14:32:15;17.96;63.61
6930;DHT22;3504;52.616;13.238;2022-10-04T14:37:46;17.90;63.33
6930;DHT22;3504;52.616;13.238;2022-10-04T14:49:44;17.75;64.10
6930;DHT22;3504;52.616;13.238;2022-10-04T14:54:57;17.76;64.75
6930;DHT22;3504;52.616;13.238;2022-10-04T15:00:19;17.55;65.07
6930;DHT22;3504;52.616;13.238;2022-10-04T15:11:13;17.48;66.07
6930;DHT22;3504;52.616;13.238;2022-10-04T15:16:56;17.45;66.32
6930;DHT22;3504;52.616;13.238;2022-10-04T15:22:13;17.32;66.91
6930;DHT22;3504;52.616;13.238;2022-10-04T15:43:33;16.90;67.64
6930;DHT22;3504;52.616;13.238;2022-10-04T16:00:21;16.64;69.37
6930;DHT22;3504;52.616;13.238;2022-10-04T16:11:12;16.46;69.67
6930;DHT22;3504;52.616;13.238;2022-10-04T16:16:58;16.32;70.54
6930;DHT22;3504;52.616;13.238;2022-10-04T16:22:17;16.19;70.74
6930;DHT22;3504;52.616;13.238;2022-10-04T16:27:36;16.07;71.51
6930;DHT22;3504;52.616;13.238;2022-10-04T16:48:29;15.44;73.33
6930;DHT22;3504;52.616;13.238;2022-10-04T16:53:46;15.29;74.28
6930;DHT22;3504;52.616;13.238;2022-10-04T17:09:30;14.79;75.48
6930;DHT22;3504;52.616;13.238;2022-10-04T17:19:43;14.50;75.96
6930;DHT22;3504;52.616;13.238;2022-10-04T17:25:24;14.33;76.31
6930;DHT22;3504;52.616;13.238;2022-10-04T17:30:57;14.16;76.85
6930;DHT22;3504;52.616;13.238;2022-10-04T17:36:20;14.04;77.16
6930;DHT22;3504;52.616;13.238;2022-10-04T17:41:52;13.95;77.02
6930;DHT22;3504;52.616;13.238;2022-10-04T17:52:04;13.67;77.52
6930;DHT22;3504;52.616;13.238;2022-10-04T17:58:02;13.55;77.44
6930;DHT22;3504;52.616;13.238;2022-10-04T18:03:16;13.44;78.22
6930;DHT22;3504;52.616;13.238;2022-10-04T18:14:05;13.30;78.24
6930;DHT22;3504;52.616;13.238;2022-10-04T18:19:42;13.21;78.12
6930;DHT22;3504;52.616;13.238;2022-10-04T18:24:46;13.14;78.09
6930;DHT22;3504;52.616;13.238;2022-10-04T18:30:10;13.08;78.23
6930;DHT22;3504;52.616;13.238;2022-10-04T18:35:26;13.04;78.17
6930;DHT22;3504;52.616;13.238;2022-10-04T18:40:40;13.00;78.32
6930;DHT22;3504;52.616;13.238;2022-10-04T18:46:02;12.94;78.63
6930;DHT22;3504;52.616;13.238;2022-10-04T18:51:25;12.94;78.60
6930;DHT22;3504;52.616;13.238;2022-10-04T18:56:27;12.94;78.54
6930;DHT22;3504;52.616;13.238;2022-10-04T19:07:19;12.94;78.44
6930;DHT22;3504;52.616;13.238;2022-10-04T19:24:16;12.88;77.97
6930;DHT22;3504;52.616;13.238;2022-10-04T19:35:28;12.77;78.06
6930;DHT22;3504;52.616;13.238;2022-10-04T19:40:49;12.76;78.02
6930;DHT22;3504;52.616;13.238;2022-10-04T19:51:37;12.63;78.28
6930;DHT22;3504;52.616;13.238;2022-10-04T19:56:46;12.56;78.27
6930;DHT22;3504;52.616;13.238;2022-10-04T20:01:47;12.50;78.64
6930;DHT22;3504;52.616;13.238;2022-10-04T20:06:59;12.45;78.80
6930;DHT22;3504;52.616;13.238;2022-10-04T20:12:00;12.38;78.91
6930;DHT22;3504;52.616;13.238;2022-10-04T20:17:02;12.39;78.87
6930;DHT22;3504;52.616;13.238;2022-10-04T20:48:21;12.15;79.64
6930;DHT22;3504;52.616;13.238;2022-10-04T20:53:27;12.12;80.15
6930;DHT22;3504;52.616;13.238;2022-10-04T20:58:32;12.12;80.42
6930;DHT22;3504;52.616;13.238;2022-10-04T21:03:34;12.11;80.61
6930;DHT22;3504;52.616;13.238;2022-10-04T21:08:37;12.12;80.46
6930;DHT22;3504;52.616;13.238;2022-10-04T21:13:55;12.14;80.28
6930;DHT22;3504;52.616;13.238;2022-10-04T21:24:36;12.18;80.34
6930;DHT22;3504;52.616;13.238;2022-10-04T21:29:39;12.19;80.45
6930;DHT22;3504;52.616;13.238;2022-10-04T21:34:39;12.24;80.30
6930;DHT22;3504;52.616;13.238;2022-10-04T21:39:40;12.25;80.22
6930;DHT22;3504;52.616;13.238;2022-10-04T21:44:40;12.29;79.93
6930;DHT22;3504;52.616;13.238;2022-10-04T21:49:41;12.24;79.91
6930;DHT22;3504;52.616;13.238;2022-10-04T21:54:43;12.22;79.97
6930;DHT22;3504;52.616;13.238;2022-10-04T21:59:43;12.24;80.09
6930;DHT22;3504;52.616;13.238;2022-10-04T22:04:44;12.21;80.08
6930;DHT22;3504;52.616;13.238;2022-10-04T22:09:44;12.18;80.11
6930;DHT22;3504;52.616;13.238;2022-10-04T22:14:45;12.19;80.03
6930;DHT22;3504;52.616;13.238;2022-10-04T22:19:45;12.17;79.80
6930;DHT22;3504;52.616;13.238;2022-10-04T22:24:46;12.12;79.74
6930;DHT22;3504;52.616;13.238;2022-10-04T22:29:46;12.06;79.87
6930;DHT22;3504;52.616;13.238;2022-10-04T22:34:47;12.05;79.71
6930;DHT22;3504;52.616;13.238;2022-10-04T22:39:51;11.97;79.45
6930;DHT22;3504;52.616;13.238;2022-10-04T22:44:52;11.89;79.75
6930;DHT22;3504;52.616;13.238;2022-10-04T22:49:53;11.82;79.87
6930;DHT22;3504;52.616;13.238;2022-10-04T22:54:56;11.78;79.89
6930;DHT22;3504;52.616;13.238;2022-10-04T22:59:57;11.68;80.01
6930;DHT22;3504;52.616;13.238;2022-10-04T23:05:12;11.56;80.22
6930;DHT22;3504;52.616;13.238;2022-10-04T23:10:17;11.46;80.17
6930;DHT22;3504;52.616;13.238;2022-10-04T23:15:19;11.36;80.24
6930;DHT22;3504;52.616;13.238;2022-10-04T23:20:21;11.26;80.45
6930;DHT22;3504;52.616;13.238;2022-10-04T23:25:28;11.17;80.57
6930;DHT22;3504;52.616;13.238;2022-10-04T23:30:29;11.12;80.55
6930;DHT22;3504;52.616;13.238;2022-10-04T23:35:32;11.06;80.93
6930;DHT22;3504;52.616;13.238;2022-10-04T23:40:33;11.03;81.15
6930;DHT22;3504;52.616;13.238;2022-10-04T23:45:33;10.99;81.30
6930;DHT22;3504;52.616;13.238;2022-10-04T23:50:36;10.97;81.71
6930;DHT22;3504;52.616;13.238;2022-10-04T23:55:41;10.89;81.73
